Time;durP1;ratioP1;P1;durP2;ratioP2;P2;SDS_P1;SDS_P2;PMS_P1;PMS_P2;Temp;Humidity;BMP_temperature;BMP_pressure;BME280_temperature;BME280_humidity;BME280_pressure;Samples;Min_cycle;Max_cycle;Signal;HPM_P1;HPM_P2
2022/09/20 00:01:13;;;;;;;8.30;3.00;;;;;;;;;;5018289;28;20202;-68
2022/09/20 00:03:42;;;;;;;6.13;2.67;;;;;;;;;;5015082;28;20207;-68
2022/09/20 00:06:10;;;;;;;10.85;3.38;;;;;;;;;;5014556;28;20210;-68
2022/09/20 00:08:39;;;;;;;9.73;2.85;;;;;;;;;;5025512;28;20203;-68
2022/09/20 00:11:08;;;;;;;5.53;2.85;;;;;;;;;;5034447;28;20281;-69
2022/09/20 00:13:36;;;;;;;7.82;3.05;;;;;;;;;;5034406;28;20561;-68
2022/09/20 00:16:05;;;;;;;6.13;2.72;;;;;;;;;;5034268;28;20219;-68
2022/09/20 00:18:32;;;;;;;16.55;3.00;;;;;;;;;;5034117;28;20211;-68
2022/09/20 00:21:00;;;;;;;4.25;2.70;;;;;;;;;;5034235;28;20210;-68
2022/09/20 00:23:28;;;;;;;6.40;3.03;;;;;;;;;;5033979;28;20279;-68
2022/09/20 00:25:58;;;;;;;6.47;2.67;;;;;;;;;;5034391;28;20195;-68
2022/09/20 00:28:26;;;;;;;6.55;2.60;;;;;;;;;;5034789;28;20200;-68
2022/09/20 00:30:53;;;;;;;5.32;2.30;;;;;;;;;;5033774;28;20223;-68
2022/09/20 00:33:20;;;;;;;4.03;2.50;;;;;;;;;;5034016;28;20200;-68
2022/09/20 00:35:47;;;;;;;6.57;2.92;;;;;;;;;;5034012;28;20230;-69
2022/09/20 00:38:14;;;;;;;19.92;3.72;;;;;;;;;;5033678;28;20199;-68
2022/09/20 00:40:42;;;;;;;5.00;2.47;;;;;;;;;;5032976;28;20207;-69
2022/09/20 00:43:14;;;;;;;11.10;2.77;;;;;;;;;;5033944;28;20294;-68
2022/09/20 00:45:42;;;;;;;6.88;2.50;;;;;;;;;;5033646;28;20969;-68
2022/09/20 00:48:12;;;;;;;10.35;2.92;;;;;;;;;;5034347;28;20294;-68
2022/09/20 00:50:41;;;;;;;15.27;3.03;;;;;;;;;;5033857;28;20191;-69
2022/09/20 00:53:10;;;;;;;8.88;2.70;;;;;;;;;;5033783;28;20659;-67
2022/09/20 00:55:39;;;;;;;14.93;2.53;;;;;;;;;;5033804;28;20196;-68
2022/09/20 00:58:06;;;;;;;11.65;2.95;;;;;;;;;;5033346;28;20201;-68
2022/09/20 01:00:35;;;;;;;4.82;2.45;;;;;;;;;;5033009;28;20622;-69
2022/09/20 01:03:06;;;;;;;12.43;2.80;;;;;;;;;;5013635;28;20203;-68
2022/09/20 01:05:34;;;;;;;9.13;2.53;;;;;;;;;;5013471;28;20199;-69
2022/09/20 01:08:01;;;;;;;7.60;2.50;;;;;;;;;;5018955;28;20209;-68
2022/09/20 01:10:29;;;;;;;7.67;3.00;;;;;;;;;;5033481;28;20444;-69
2022/09/20 01:12:56;;;;;;;11.20;2.63;;;;;;;;;;5033327;28;20487;-69
2022/09/20 01:15:26;;;;;;;5.77;2.80;;;;;;;;;;5032992;28;20505;-68
2022/09/20 01:17:56;;;;;;;11.57;3.00;;;;;;;;;;5033283;28;20570;-68
2022/09/20 01:20:24;;;;;;;6.17;2.50;;;;;;;;;;5033306;28;20446;-68
2022/09/20 01:23:05;;;;;;;4.00;2.33;;;;;;;;;;5033135;28;20442;-68
2022/09/20 01:25:46;;;;;;;7.50;2.67;;;;;;;;;;5032981;28;20437;-67
2022/09/20 01:28:15;;;;;;;12.73;4.55;;;;;;;;;;5033258;28;20190;-69
2022/09/20 01:30:45;;;;;;;6.63;2.35;;;;;;;;;;5033247;28;20239;-69
2022/09/20 01:33:17;;;;;;;7.72;3.05;;;;;;;;;;5032886;28;20647;-69
2022/09/20 01:35:46;;;;;;;16.97;2.93;;;;;;;;;;5033294;28;20203;-69
2022/09/20 01:38:22;;;;;;;19.45;4.53;;;;;;;;;;5033027;28;20874;-69
2022/09/20 01:40:57;;;;;;;7.28;2.50;;;;;;;;;;5033552;28;20203;-72
2022/09/20 01:43:30;;;;;;;11.13;3.47;;;;;;;;;;5032984;28;20192;-69
2022/09/20 01:45:59;;;;;;;4.87;2.40;;;;;;;;;;5032798;28;20785;-69
2022/09/20 01:48:34;;;;;;;5.35;2.75;;;;;;;;;;5032703;28;20525;-68
2022/09/20 01:51:21;;;;;;;8.43;2.70;;;;;;;;;;5033735;28;20532;-68
2022/09/20 01:54:10;;;;;;;14.82;3.05;;;;;;;;;;5032594;28;20190;-68
2022/09/20 01:56:54;;;;;;;11.05;3.20;;;;;;;;;;5032382;28;20211;-69
2022/09/20 01:59:36;;;;;;;14.27;3.22;;;;;;;;;;5032623;28;20633;-68
2022/09/20 02:02:17;;;;;;;8.10;3.10;;;;;;;;;;5019654;28;20221;-68
2022/09/20 02:05:06;;;;;;;4.43;2.30;;;;;;;;;;5012868;28;20504;-68
2022/09/20 02:07:45;;;;;;;5.68;2.70;;;;;;;;;;5014987;28;20553;-68
2022/09/20 02:10:31;;;;;;;11.32;3.08;;;;;;;;;;5012705;28;20188;-68
2022/09/20 02:12:59;;;;;;;7.22;2.65;;;;;;;;;;5013060;28;20191;-69
2022/09/20 02:15:41;;;;;;;8.18;2.33;;;;;;;;;;5012806;28;20633;-68
2022/09/20 02:18:16;;;;;;;11.95;2.42;;;;;;;;;;5013127;28;20208;-67
2022/09/20 02:20:45;;;;;;;4.78;2.70;;;;;;;;;;5012965;28;20283;-67
2022/09/20 02:23:17;;;;;;;4.75;2.50;;;;;;;;;;5012795;28;20559;-68
2022/09/20 02:25:51;;;;;;;7.25;2.90;;;;;;;;;;5012883;28;20188;-68
2022/09/20 02:28:24;;;;;;;8.77;3.05;;;;;;;;;;5013002;28;20254;-68
2022/09/20 02:30:56;;;;;;;4.78;2.47;;;;;;;;;;5012622;28;20323;-68
2022/09/20 02:33:36;;;;;;;3.33;2.75;;;;;;;;;;5012334;28;20653;-68
2022/09/20 02:36:09;;;;;;;7.20;2.60;;;;;;;;;;5013037;28;20206;-68
2022/09/20 02:38:42;;;;;;;8.48;3.08;;;;;;;;;;5012784;28;20279;-67
2022/09/20 02:41:38;;;;;;;10.20;3.13;;;;;;;;;;5012912;28;20254;-68
2022/09/20 02:44:09;;;;;;;8.73;3.42;;;;;;;;;;5012771;28;20424;-67
2022/09/20 02:46:41;;;;;;;16.13;3.40;;;;;;;;;;5012509;28;20189;-68
2022/09/20 02:49:14;;;;;;;7.40;2.85;;;;;;;;;;5012717;28;20185;-68
2022/09/20 02:51:43;;;;;;;9.02;2.55;;;;;;;;;;5012331;28;20184;-68
2022/09/20 02:54:16;;;;;;;10.27;2.70;;;;;;;;;;5012259;28;20654;-68
2022/09/20 02:56:48;;;;;;;4.55;3.00;;;;;;;;;;5012958;28;20219;-68
2022/09/20 02:59:22;;;;;;;5.87;2.70;;;;;;;;;;5012776;28;20192;-68
2022/09/20 03:01:53;;;;;;;11.60;3.55;;;;;;;;;;5015911;28;20467;-68
2022/09/20 03:04:31;;;;;;;9.43;3.35;;;;;;;;;;5015195;28;20279;-68
2022/09/20 03:07:02;;;;;;;6.53;2.70;;;;;;;;;;5015962;28;20288;-68
2022/09/20 03:09:32;;;;;;;11.07;3.50;;;;;;;;;;5019384;28;20536;-68
2022/09/20 03:12:03;;;;;;;5.72;3.45;;;;;;;;;;5016291;28;20185;-69
2022/09/20 03:14:34;;;;;;;6.45;2.90;;;;;;;;;;5015951;28;20188;-68
2022/09/20 03:17:05;;;;;;;5.32;2.75;;;;;;;;;;5015678;28;20231;-68
2022/09/20 03:19:50;;;;;;;6.90;2.85;;;;;;;;;;5015847;28;20195;-68
2022/09/20 03:22:24;;;;;;;6.22;2.70;;;;;;;;;;5015817;28;20212;-68
2022/09/20 03:24:59;;;;;;;5.50;2.70;;;;;;;;;;5015826;28;20553;-68
2022/09/20 03:27:31;;;;;;;9.50;2.65;;;;;;;;;;5015386;28;20188;-68
2022/09/20 03:30:06;;;;;;;9.40;3.03;;;;;;;;;;5015172;28;20245;-68
2022/09/20 03:32:41;;;;;;;10.53;3.60;;;;;;;;;;5015635;28;20233;-67
2022/09/20 03:35:17;;;;;;;11.18;3.20;;;;;;;;;;5015508;28;20435;-68
2022/09/20 03:37:51;;;;;;;6.68;2.70;;;;;;;;;;5015487;28;20214;-67
2022/09/20 03:40:48;;;;;;;12.13;3.35;;;;;;;;;;5015546;28;20191;-67
2022/09/20 03:43:21;;;;;;;13.45;3.03;;;;;;;;;;4973879;28;20568;-68
2022/09/20 03:45:55;;;;;;;8.48;2.97;;;;;;;;;;5008081;28;20200;-68
2022/09/20 03:48:36;;;;;;;4.50;2.80;;;;;;;;;;5015049;28;20191;-68
2022/09/20 03:51:18;;;;;;;7.40;2.58;;;;;;;;;;5015392;28;20191;-68
2022/09/20 03:53:58;;;;;;;9.48;2.90;;;;;;;;;;5013457;28;20207;-68
2022/09/20 03:56:31;;;;;;;6.50;3.80;;;;;;;;;;5015461;28;20291;-68
2022/09/20 03:59:06;;;;;;;5.55;2.45;;;;;;;;;;5015246;28;20549;-68
2022/09/20 04:01:39;;;;;;;11.30;3.22;;;;;;;;;;5015413;28;20199;-67
2022/09/20 04:04:12;;;;;;;5.30;2.95;;;;;;;;;;5016397;28;20184;-68
2022/09/20 04:06:46;;;;;;;6.18;3.45;;;;;;;;;;5034715;28;20183;-68
2022/09/20 04:09:32;;;;;;;7.55;3.65;;;;;;;;;;5034740;28;20529;-68
2022/09/20 04:12:02;;;;;;;6.45;3.05;;;;;;;;;;5034223;28;20234;-68
2022/09/20 04:14:33;;;;;;;6.53;2.70;;;;;;;;;;5033542;28;20235;-68
2022/09/20 04:17:04;;;;;;;8.13;3.10;;;;;;;;;;5034137;28;20704;-68
2022/09/20 04:19:40;;;;;;;6.45;3.50;;;;;;;;;;5034508;28;20194;-68
2022/09/20 04:22:09;;;;;;;10.20;3.78;;;;;;;;;;5034396;28;20222;-68
2022/09/20 04:24:45;;;;;;;5.17;2.83;;;;;;;;;;5034232;28;20202;-68
2022/09/20 04:27:15;;;;;;;10.88;3.60;;;;;;;;;;5034550;28;20457;-68
2022/09/20 04:29:45;;;;;;;10.25;3.90;;;;;;;;;;5033943;28;20200;-69
2022/09/20 04:32:16;;;;;;;6.82;2.90;;;;;;;;;;5034031;28;20965;-69
2022/09/20 04:37:32;;;;;;;10.23;3.38;;;;;;;;;;5033901;28;20206;-69
2022/09/20 04:40:04;;;;;;;9.07;3.50;;;;;;;;;;5034004;28;20604;-69
2022/09/20 04:42:50;;;;;;;11.02;3.72;;;;;;;;;;5033936;28;20318;-69
2022/09/20 04:45:29;;;;;;;5.25;3.03;;;;;;;;;;5024890;28;20204;-68
2022/09/20 04:48:12;;;;;;;5.28;3.28;;;;;;;;;;5034370;28;20563;-68
2022/09/20 04:50:47;;;;;;;12.10;3.55;;;;;;;;;;5034124;28;20192;-68
2022/09/20 04:53:22;;;;;;;7.70;4.03;;;;;;;;;;5033660;28;20179;-68
2022/09/20 04:55:59;;;;;;;8.82;3.42;;;;;;;;;;5034028;28;20179;-68
2022/09/20 04:58:39;;;;;;;10.52;3.28;;;;;;;;;;5033238;28;20261;-68
2022/09/20 05:01:21;;;;;;;11.77;4.97;;;;;;;;;;5033554;28;20215;-68
2022/09/20 05:04:06;;;;;;;7.57;4.07;;;;;;;;;;5021355;28;20249;-69
2022/09/20 05:06:44;;;;;;;7.35;3.95;;;;;;;;;;5033012;28;20217;-69
2022/09/20 05:09:28;;;;;;;5.50;3.50;;;;;;;;;;5033623;28;20187;-68
2022/09/20 05:12:27;;;;;;;8.82;3.65;;;;;;;;;;5033749;28;20198;-69
2022/09/20 05:15:08;;;;;;;6.72;4.18;;;;;;;;;;5033995;28;20183;-68
2022/09/20 05:17:53;;;;;;;10.63;4.70;;;;;;;;;;5032881;28;20214;-68
2022/09/20 05:20:35;;;;;;;8.38;3.50;;;;;;;;;;5032380;28;20204;-68
2022/09/20 05:23:18;;;;;;;14.88;4.25;;;;;;;;;;5031214;28;20198;-67
2022/09/20 05:25:55;;;;;;;7.60;3.72;;;;;;;;;;5032987;28;20637;-68
2022/09/20 05:28:27;;;;;;;5.20;3.72;;;;;;;;;;5033657;28;20199;-68
2022/09/20 05:30:57;;;;;;;9.25;3.80;;;;;;;;;;5033106;28;20238;-68
2022/09/20 05:33:28;;;;;;;8.55;3.60;;;;;;;;;;5034105;28;20193;-69
2022/09/20 05:36:02;;;;;;;9.60;4.63;;;;;;;;;;5033558;28;20191;-69
2022/09/20 05:38:32;;;;;;;9.63;3.80;;;;;;;;;;5033553;28;20236;-68
2022/09/20 05:41:09;;;;;;;9.65;3.78;;;;;;;;;;5033073;28;20191;-68
2022/09/20 05:43:40;;;;;;;10.63;4.20;;;;;;;;;;5033130;28;20229;-68
2022/09/20 05:46:15;;;;;;;12.25;5.20;;;;;;;;;;5033210;28;20186;-69
2022/09/20 05:48:47;;;;;;;12.10;5.00;;;;;;;;;;5033476;28;20538;-68
2022/09/20 05:51:21;;;;;;;9.75;3.83;;;;;;;;;;5033442;28;20197;-69
2022/09/20 05:53:56;;;;;;;8.20;4.55;;;;;;;;;;5033447;28;20240;-69
2022/09/20 05:56:29;;;;;;;5.88;3.67;;;;;;;;;;5032931;28;20632;-69
2022/09/20 05:59:08;;;;;;;7.90;4.35;;;;;;;;;;5033396;28;20211;-69
2022/09/20 06:01:40;;;;;;;8.82;4.25;;;;;;;;;;5033269;28;20592;-68
2022/09/20 06:04:24;;;;;;;7.88;4.65;;;;;;;;;;5033290;28;20515;-69
2022/09/20 06:06:56;;;;;;;14.30;4.93;;;;;;;;;;5032815;28;20209;-68
2022/09/20 06:09:36;;;;;;;9.23;3.88;;;;;;;;;;5033269;28;20201;-69
2022/09/20 06:12:12;;;;;;;13.15;4.72;;;;;;;;;;5032708;28;20184;-70
2022/09/20 06:14:47;;;;;;;10.68;4.00;;;;;;;;;;5033055;28;20193;-70
2022/09/20 06:17:18;;;;;;;7.68;4.40;;;;;;;;;;5032506;28;20305;-70
2022/09/20 06:19:47;;;;;;;7.65;4.00;;;;;;;;;;5032825;28;20640;-69
2022/09/20 06:22:17;;;;;;;6.70;3.83;;;;;;;;;;5032859;28;20206;-69
2022/09/20 06:24:46;;;;;;;14.63;4.45;;;;;;;;;;5032837;28;20295;-69
2022/09/20 06:27:14;;;;;;;9.55;3.75;;;;;;;;;;5032793;28;20207;-69
2022/09/20 06:29:47;;;;;;;5.10;3.33;;;;;;;;;;5032498;28;20202;-68
2022/09/20 06:32:17;;;;;;;10.10;3.65;;;;;;;;;;5032707;28;20233;-69
2022/09/20 06:34:44;;;;;;;7.40;3.63;;;;;;;;;;5033276;28;20196;-69
2022/09/20 06:42:52;;;;;;;8.25;3.65;;;;;;;;;;5036398;28;20226;-69
2022/09/20 06:45:21;;;;;;;9.35;3.67;;;;;;;;;;5036260;28;20656;-69
2022/09/20 06:47:48;;;;;;;8.85;3.25;;;;;;;;;;5036835;28;20202;-69
2022/09/20 06:50:15;;;;;;;11.20;3.83;;;;;;;;;;5036668;28;20202;-69
2022/09/20 06:52:43;;;;;;;10.93;4.72;;;;;;;;;;5035982;28;20450;-69
2022/09/20 06:55:12;;;;;;;4.10;3.53;;;;;;;;;;5036460;28;20207;-70
2022/09/20 06:57:40;;;;;;;13.18;3.55;;;;;;;;;;5036245;28;20349;-69
2022/09/20 07:00:10;;;;;;;4.18;2.95;;;;;;;;;;5036118;28;20696;-69
2022/09/20 07:02:39;;;;;;;8.00;3.80;;;;;;;;;;5036195;28;20184;-69
2022/09/20 07:05:09;;;;;;;7.40;3.80;;;;;;;;;;5036912;28;20438;-69
2022/09/20 07:07:37;;;;;;;10.55;3.65;;;;;;;;;;5035805;28;20435;-69
2022/09/20 07:10:04;;;;;;;7.90;3.10;;;;;;;;;;5035802;28;20196;-71
2022/09/20 07:12:32;;;;;;;11.27;3.33;;;;;;;;;;5036156;28;20454;-68
2022/09/20 07:15:00;;;;;;;8.13;3.03;;;;;;;;;;5036053;28;20504;-69
2022/09/20 07:17:27;;;;;;;7.47;3.20;;;;;;;;;;5035453;28;20932;-69
2022/09/20 07:19:56;;;;;;;5.70;3.20;;;;;;;;;;5035605;28;20446;-69
2022/09/20 07:22:23;;;;;;;8.25;2.95;;;;;;;;;;5035438;28;20249;-68
2022/09/20 07:24:50;;;;;;;6.33;2.93;;;;;;;;;;5035908;28;20195;-69
2022/09/20 07:27:17;;;;;;;10.53;3.40;;;;;;;;;;5035656;28;20442;-69
2022/09/20 07:29:45;;;;;;;6.10;2.50;;;;;;;;;;5035386;28;20450;-69
2022/09/20 07:32:14;;;;;;;10.10;2.90;;;;;;;;;;5035113;28;20502;-69
2022/09/20 07:34:41;;;;;;;7.60;2.67;;;;;;;;;;5035236;28;20454;-69
2022/09/20 07:37:10;;;;;;;4.70;2.20;;;;;;;;;;5035296;28;20944;-69
2022/09/20 07:39:37;;;;;;;11.70;3.70;;;;;;;;;;5035453;28;20482;-69
2022/09/20 07:42:06;;;;;;;6.00;2.37;;;;;;;;;;5035155;28;20446;-69
2022/09/20 07:44:33;;;;;;;9.43;2.70;;;;;;;;;;5035799;28;20447;-69
2022/09/20 07:47:01;;;;;;;3.63;2.30;;;;;;;;;;5035066;28;20457;-68
2022/09/20 07:49:29;;;;;;;6.20;2.33;;;;;;;;;;5034849;28;20454;-68
2022/09/20 07:51:57;;;;;;;5.40;2.30;;;;;;;;;;5035603;28;20504;-69
2022/09/20 07:54:26;;;;;;;8.90;2.53;;;;;;;;;;5035259;28;20453;-68
2022/09/20 07:56:53;;;;;;;2.03;1.83;;;;;;;;;;5035692;28;20448;-69
2022/09/20 07:59:20;;;;;;;10.33;2.23;;;;;;;;;;5034861;28;20552;-69
2022/09/20 08:01:47;;;;;;;6.83;2.40;;;;;;;;;;5035323;28;20472;-69
2022/09/20 08:04:15;;;;;;;7.00;2.40;;;;;;;;;;5035114;28;20525;-69
2022/09/20 08:06:42;;;;;;;4.40;2.10;;;;;;;;;;5035367;28;20458;-69
2022/09/20 08:09:10;;;;;;;7.67;2.53;;;;;;;;;;5035100;28;20450;-69
2022/09/20 08:11:39;;;;;;;13.20;2.10;;;;;;;;;;5034918;28;20456;-69
2022/09/20 08:14:06;;;;;;;4.00;2.43;;;;;;;;;;5034892;28;20851;-68
2022/09/20 08:16:38;;;;;;;10.70;2.70;;;;;;;;;;5034484;28;20445;-69
2022/09/20 08:19:05;;;;;;;5.23;1.80;;;;;;;;;;5034838;28;20477;-68
2022/09/20 08:21:33;;;;;;;4.57;1.77;;;;;;;;;;5034061;28;20439;-69
2022/09/20 08:24:00;;;;;;;5.50;1.90;;;;;;;;;;5034636;28;20441;-69
2022/09/20 08:26:29;;;;;;;7.07;2.00;;;;;;;;;;5034753;28;20449;-69
2022/09/20 08:29:00;;;;;;;3.77;1.53;;;;;;;;;;5034561;28;20914;-69
2022/09/20 08:31:30;;;;;;;6.53;1.77;;;;;;;;;;5034169;28;20492;-68
2022/09/20 08:33:57;;;;;;;5.10;1.97;;;;;;;;;;5034154;28;20439;-69
2022/09/20 08:36:26;;;;;;;13.03;2.57;;;;;;;;;;5034573;28;20880;-69
2022/09/20 08:38:54;;;;;;;6.70;2.03;;;;;;;;;;5034176;28;20837;-69
2022/09/20 08:41:24;;;;;;;8.20;2.00;;;;;;;;;;5034370;28;20454;-68
2022/09/20 08:43:52;;;;;;;7.07;2.27;;;;;;;;;;5033912;28;20467;-68
2022/09/20 08:46:24;;;;;;;5.53;2.27;;;;;;;;;;5034285;28;20542;-69
2022/09/20 08:48:52;;;;;;;7.20;2.90;;;;;;;;;;5034302;28;20444;-69
2022/09/20 08:51:20;;;;;;;4.83;1.80;;;;;;;;;;5033870;28;20445;-68
2022/09/20 08:53:49;;;;;;;4.60;1.80;;;;;;;;;;5033777;28;20553;-68
2022/09/20 08:56:16;;;;;;;3.87;2.00;;;;;;;;;;5034093;28;20438;-68
2022/09/20 08:58:43;;;;;;;8.30;1.97;;;;;;;;;;5033572;28;20493;-69
2022/09/20 09:01:14;;;;;;;5.93;1.97;;;;;;;;;;5033137;28;20453;-68
2022/09/20 09:03:42;;;;;;;2.70;1.80;;;;;;;;;;5034084;28;20462;-69
2022/09/20 09:06:13;;;;;;;4.53;2.40;;;;;;;;;;5033519;28;20450;-69
2022/09/20 09:08:40;;;;;;;5.80;1.83;;;;;;;;;;5033871;28;20436;-69
2022/09/20 09:11:08;;;;;;;7.07;1.90;;;;;;;;;;5033809;28;20924;-68
2022/09/20 09:13:40;;;;;;;5.10;1.90;;;;;;;;;;5033663;28;20449;-69
2022/09/20 09:16:09;;;;;;;2.17;1.87;;;;;;;;;;5033764;28;20432;-69
2022/09/20 09:18:38;;;;;;;4.07;1.57;;;;;;;;;;5033544;28;20570;-69
2022/09/20 09:21:09;;;;;;;2.80;1.63;;;;;;;;;;5034491;28;20484;-69
2022/09/20 09:23:41;;;;;;;5.53;1.60;;;;;;;;;;5033319;28;20464;-69
2022/09/20 09:26:15;;;;;;;5.30;1.53;;;;;;;;;;5033565;28;20438;-68
2022/09/20 09:28:42;;;;;;;2.20;1.87;;;;;;;;;;5033516;28;20437;-69
2022/09/20 09:31:14;;;;;;;3.53;2.07;;;;;;;;;;5033257;28;20481;-69
2022/09/20 09:33:44;;;;;;;5.07;1.60;;;;;;;;;;5033430;28;20955;-69
2022/09/20 09:36:15;;;;;;;3.50;1.40;;;;;;;;;;5033438;28;20446;-69
2022/09/20 09:38:44;;;;;;;3.97;1.60;;;;;;;;;;5032978;28;20479;-69
2022/09/20 09:41:24;;;;;;;7.33;2.23;;;;;;;;;;5033544;28;20446;-69
2022/09/20 09:43:58;;;;;;;5.80;1.83;;;;;;;;;;5033031;28;20430;-69
2022/09/20 09:46:27;;;;;;;7.80;2.20;;;;;;;;;;5033382;28;20423;-69
2022/09/20 09:49:06;;;;;;;4.70;2.13;;;;;;;;;;5033409;28;20533;-71
2022/09/20 09:51:35;;;;;;;10.90;2.23;;;;;;;;;;5033353;28;20487;-69
2022/09/20 09:54:02;;;;;;;13.07;2.40;;;;;;;;;;5033103;28;20440;-69
2022/09/20 09:56:56;;;;;;;12.27;2.37;;;;;;;;;;5032945;28;20444;-69
2022/09/20 09:59:33;;;;;;;3.13;1.70;;;;;;;;;;5019313;28;20483;-68
2022/09/20 10:02:04;;;;;;;7.80;1.60;;;;;;;;;;5033401;28;20478;-68
2022/09/20 10:04:35;;;;;;;6.80;1.67;;;;;;;;;;5033045;28;20428;-69
2022/09/20 10:07:07;;;;;;;8.37;1.80;;;;;;;;;;5032967;28;20913;-68
2022/09/20 10:09:42;;;;;;;6.40;1.67;;;;;;;;;;5032683;28;20447;-69
2022/09/20 10:12:17;;;;;;;4.30;1.73;;;;;;;;;;5033398;28;20435;-68
2022/09/20 10:14:53;;;;;;;3.53;1.53;;;;;;;;;;5036614;28;20847;-69
2022/09/20 10:17:30;;;;;;;2.77;1.50;;;;;;;;;;5036919;28;20430;-68
2022/09/20 10:20:05;;;;;;;5.43;2.20;;;;;;;;;;5037012;28;20467;-68
2022/09/20 10:22:45;;;;;;;5.37;1.60;;;;;;;;;;5036796;28;21031;-69
2022/09/20 10:25:21;;;;;;;3.20;1.80;;;;;;;;;;5037118;28;20440;-68
2022/09/20 10:27:56;;;;;;;8.73;1.73;;;;;;;;;;5037482;28;20425;-68
2022/09/20 10:30:24;;;;;;;4.63;1.70;;;;;;;;;;5036837;28;20444;-68
2022/09/20 10:32:58;;;;;;;2.47;1.63;;;;;;;;;;5036619;28;20484;-69
2022/09/20 10:35:44;;;;;;;8.73;2.07;;;;;;;;;;5036582;28;20477;-69
2022/09/20 10:38:18;;;;;;;4.40;1.80;;;;;;;;;;5036951;28;20451;-68
2022/09/20 10:43:42;;;;;;;3.37;1.67;;;;;;;;;;5003278;28;20844;-69
2022/09/20 10:46:15;;;;;;;6.83;1.90;;;;;;;;;;5036175;28;20427;-68
2022/09/20 10:48:42;;;;;;;6.00;1.40;;;;;;;;;;5036229;28;20441;-69
2022/09/20 10:51:16;;;;;;;1.53;1.30;;;;;;;;;;5036117;28;20450;-68
2022/09/20 10:53:49;;;;;;;5.53;1.30;;;;;;;;;;5036110;28;20486;-69
2022/09/20 10:56:24;;;;;;;3.90;1.50;;;;;;;;;;5036091;28;20441;-69
2022/09/20 10:59:16;;;;;;;6.30;1.60;;;;;;;;;;5035886;28;20434;-69
2022/09/20 11:01:49;;;;;;;5.47;1.63;;;;;;;;;;5021041;28;20463;-69
2022/09/20 11:04:28;;;;;;;5.37;1.80;;;;;;;;;;5036210;28;20443;-68
2022/09/20 11:07:01;;;;;;;5.90;1.40;;;;;;;;;;5036253;28;20437;-69
2022/09/20 11:09:35;;;;;;;4.00;1.50;;;;;;;;;;5035852;28;20433;-68
2022/09/20 11:12:07;;;;;;;1.70;1.43;;;;;;;;;;5036305;28;20444;-69
2022/09/20 11:14:36;;;;;;;6.30;1.53;;;;;;;;;;5036270;28;20444;-68
2022/09/20 11:17:07;;;;;;;4.87;1.60;;;;;;;;;;5035957;28;20452;-69
2022/09/20 11:19:37;;;;;;;4.10;1.63;;;;;;;;;;5035919;28;20472;-68
2022/09/20 11:22:08;;;;;;;2.07;1.80;;;;;;;;;;5036315;28;20434;-68
2022/09/20 11:24:38;;;;;;;2.87;1.20;;;;;;;;;;5034909;28;20457;-69
2022/09/20 11:27:09;;;;;;;1.30;1.20;;;;;;;;;;5036227;28;20441;-68
2022/09/20 11:29:38;;;;;;;5.40;1.47;;;;;;;;;;5035552;28;20436;-69
2022/09/20 11:32:11;;;;;;;4.30;1.17;;;;;;;;;;5035232;28;20491;-68
2022/09/20 11:34:40;;;;;;;3.97;1.20;;;;;;;;;;5035719;28;20436;-69
2022/09/20 11:37:10;;;;;;;5.43;1.53;;;;;;;;;;5035224;28;20445;-69
2022/09/20 11:39:41;;;;;;;2.60;1.40;;;;;;;;;;5035063;28;20479;-69
2022/09/20 11:42:13;;;;;;;5.57;2.00;;;;;;;;;;5035187;28;20543;-68
2022/09/20 11:44:41;;;;;;;2.40;1.97;;;;;;;;;;5035720;28;20456;-69
2022/09/20 11:47:12;;;;;;;1.73;1.30;;;;;;;;;;5035000;28;20544;-68
2022/09/20 11:49:46;;;;;;;2.70;1.50;;;;;;;;;;5035005;28;20445;-69
2022/09/20 11:52:31;;;;;;;3.80;1.20;;;;;;;;;;5035288;28;20433;-68
2022/09/20 11:55:16;;;;;;;2.60;1.23;;;;;;;;;;5035845;28;20444;-68
2022/09/20 11:57:45;;;;;;;5.13;1.60;;;;;;;;;;5024928;28;20475;-68
2022/09/20 12:00:16;;;;;;;4.07;1.67;;;;;;;;;;5035024;28;20512;-69
2022/09/20 12:02:46;;;;;;;3.47;1.47;;;;;;;;;;5035325;28;20429;-68
2022/09/20 12:05:26;;;;;;;1.97;1.40;;;;;;;;;;5035004;28;20443;-68
2022/09/20 12:07:54;;;;;;;2.20;1.23;;;;;;;;;;5034945;28;20984;-68
2022/09/20 12:10:23;;;;;;;5.43;1.47;;;;;;;;;;5034566;28;20457;-69
2022/09/20 12:12:56;;;;;;;1.50;1.10;;;;;;;;;;5034892;28;20806;-68
2022/09/20 12:15:24;;;;;;;3.27;1.30;;;;;;;;;;5035192;28;20778;-68
2022/09/20 12:18:15;;;;;;;2.03;1.23;;;;;;;;;;5034816;28;20776;-69
2022/09/20 12:21:02;;;;;;;3.43;1.43;;;;;;;;;;5034401;28;20468;-68
2022/09/20 12:23:59;;;;;;;8.53;1.50;;;;;;;;;;5035339;28;20439;-68
2022/09/20 12:26:37;;;;;;;5.30;1.50;;;;;;;;;;4973592;28;20480;-69
2022/09/20 12:29:25;;;;;;;3.13;1.40;;;;;;;;;;5024979;28;20639;-68
2022/09/20 12:31:53;;;;;;;8.43;1.30;;;;;;;;;;5034424;28;20516;-68
2022/09/20 12:34:33;;;;;;;1.77;1.23;;;;;;;;;;5035074;28;20446;-69
2022/09/20 12:37:18;;;;;;;2.33;1.30;;;;;;;;;;5033589;28;20435;-69
2022/09/20 12:39:52;;;;;;;2.90;1.33;;;;;;;;;;5034248;28;20484;-68
2022/09/20 12:42:28;;;;;;;3.13;1.20;;;;;;;;;;5033946;28;20939;-69
2022/09/20 12:45:00;;;;;;;4.10;1.63;;;;;;;;;;5034336;28;20436;-69
2022/09/20 12:47:28;;;;;;;4.43;1.53;;;;;;;;;;5034192;28;20437;-69
2022/09/20 12:52:56;;;;;;;3.90;1.80;;;;;;;;;;5033866;28;20440;-70
2022/09/20 12:55:32;;;;;;;1.97;1.37;;;;;;;;;;5034067;28;20553;-68
2022/09/20 12:58:01;;;;;;;3.93;1.63;;;;;;;;;;5034244;28;20461;-67
2022/09/20 13:00:33;;;;;;;1.37;1.27;;;;;;;;;;5033649;28;20494;-68
2022/09/20 13:03:01;;;;;;;3.47;1.53;;;;;;;;;;5033865;28;20524;-67
2022/09/20 13:05:35;;;;;;;3.77;1.50;;;;;;;;;;5033819;28;20801;-67
2022/09/20 13:08:03;;;;;;;3.67;1.30;;;;;;;;;;5034415;28;20454;-67
2022/09/20 13:10:33;;;;;;;2.87;1.30;;;;;;;;;;5033417;28;20999;-68
2022/09/20 13:13:11;;;;;;;4.40;1.53;;;;;;;;;;5033780;28;20444;-67
2022/09/20 13:15:40;;;;;;;2.40;1.57;;;;;;;;;;5033461;28;20440;-67
2022/09/20 13:18:08;;;;;;;5.50;1.63;;;;;;;;;;5032116;28;20437;-68
2022/09/20 13:20:35;;;;;;;4.63;1.50;;;;;;;;;;5032663;28;21126;-67
2022/09/20 13:23:05;;;;;;;1.93;1.50;;;;;;;;;;5032603;28;20505;-68
2022/09/20 13:25:33;;;;;;;1.23;1.10;;;;;;;;;;5033036;28;20829;-68
2022/09/20 13:28:08;;;;;;;4.47;1.50;;;;;;;;;;5032836;28;20443;-67
2022/09/20 13:30:35;;;;;;;4.70;1.37;;;;;;;;;;5032524;28;20462;-67
2022/09/20 13:33:17;;;;;;;3.77;2.57;;;;;;;;;;5032529;28;20452;-68
2022/09/20 13:35:47;;;;;;;6.83;1.37;;;;;;;;;;5032976;28;20453;-68
2022/09/20 13:38:19;;;;;;;2.53;1.23;;;;;;;;;;5032810;28;20447;-67
2022/09/20 13:40:47;;;;;;;2.73;1.50;;;;;;;;;;5032644;28;20893;-68
2022/09/20 13:43:20;;;;;;;5.10;1.30;;;;;;;;;;5032568;28;20435;-65
2022/09/20 13:45:48;;;;;;;4.43;1.43;;;;;;;;;;5032801;28;20449;-65
2022/09/20 13:48:17;;;;;;;6.10;1.30;;;;;;;;;;5032232;28;20447;-66
2022/09/20 13:50:44;;;;;;;2.60;1.20;;;;;;;;;;5032327;28;20452;-65
2022/09/20 13:53:15;;;;;;;3.07;1.23;;;;;;;;;;5032088;28;20444;-66
2022/09/20 13:55:43;;;;;;;2.00;1.10;;;;;;;;;;5026150;28;20476;-65
2022/09/20 13:58:18;;;;;;;1.73;1.10;;;;;;;;;;5020223;28;20444;-65
2022/09/20 14:00:47;;;;;;;2.47;1.40;;;;;;;;;;5012568;28;20501;-65
2022/09/20 14:03:17;;;;;;;8.30;1.10;;;;;;;;;;5012879;28;20811;-66
2022/09/20 14:05:48;;;;;;;4.03;1.20;;;;;;;;;;5012641;28;20437;-64
2022/09/20 14:08:21;;;;;;;2.40;1.13;;;;;;;;;;5012900;28;20457;-65
2022/09/20 14:10:48;;;;;;;2.60;1.37;;;;;;;;;;5012612;28;20443;-66
2022/09/20 14:13:16;;;;;;;4.83;1.30;;;;;;;;;;5012355;28;20438;-66
2022/09/20 14:15:45;;;;;;;4.63;1.33;;;;;;;;;;5012763;28;20442;-65
2022/09/20 14:18:14;;;;;;;2.20;1.50;;;;;;;;;;5023055;28;20442;-66
2022/09/20 14:20:43;;;;;;;2.63;1.30;;;;;;;;;;5032365;28;20484;-66
2022/09/20 14:23:21;;;;;;;3.43;1.60;;;;;;;;;;5032308;28;20459;-67
2022/09/20 14:26:03;;;;;;;1.77;1.60;;;;;;;;;;5032210;28;20429;-66
2022/09/20 14:28:30;;;;;;;4.13;1.20;;;;;;;;;;5032176;28;20530;-66
2022/09/20 14:31:06;;;;;;;3.23;1.43;;;;;;;;;;5031679;28;20474;-66
2022/09/20 14:33:33;;;;;;;3.10;1.20;;;;;;;;;;5032157;28;20449;-66
2022/09/20 14:36:00;;;;;;;3.00;2.30;;;;;;;;;;5032480;28;20486;-66
2022/09/20 14:38:29;;;;;;;4.10;1.30;;;;;;;;;;5032209;28;20451;-66
2022/09/20 14:40:56;;;;;;;6.50;1.73;;;;;;;;;;5032254;28;20477;-65
2022/09/20 14:43:30;;;;;;;3.10;1.37;;;;;;;;;;5032106;28;20445;-67
2022/09/20 14:45:59;;;;;;;2.33;1.50;;;;;;;;;;5033042;28;20884;-68
2022/09/20 14:48:37;;;;;;;2.00;1.37;;;;;;;;;;5032057;28;20507;-68
2022/09/20 14:51:22;;;;;;;3.80;1.70;;;;;;;;;;5031749;28;20442;-67
2022/09/20 14:53:51;;;;;;;1.50;1.10;;;;;;;;;;5031986;28;20442;-67
2022/09/20 14:56:26;;;;;;;3.10;1.60;;;;;;;;;;5014663;28;20491;-66
2022/09/20 14:59:05;;;;;;;3.10;1.50;;;;;;;;;;5032635;28;20449;-66
2022/09/20 15:01:32;;;;;;;2.60;1.30;;;;;;;;;;5035878;28;20487;-68
2022/09/20 15:04:00;;;;;;;2.10;1.50;;;;;;;;;;5035934;28;20480;-67
2022/09/20 15:06:27;;;;;;;4.30;1.90;;;;;;;;;;5035563;28;20455;-66
2022/09/20 15:08:56;;;;;;;2.70;1.50;;;;;;;;;;5035872;28;20452;-69
2022/09/20 15:11:23;;;;;;;1.30;1.20;;;;;;;;;;5035005;28;20451;-68
2022/09/20 15:13:50;;;;;;;4.50;1.70;;;;;;;;;;5035044;28;20935;-68
2022/09/20 15:16:19;;;;;;;1.80;1.47;;;;;;;;;;5035342;28;20966;-67
2022/09/20 15:18:47;;;;;;;3.97;2.10;;;;;;;;;;5035311;28;20510;-69
2022/09/20 15:21:14;;;;;;;6.70;1.90;;;;;;;;;;5035432;28;20470;-68
2022/09/20 15:23:41;;;;;;;2.90;1.33;;;;;;;;;;5035716;28;20444;-68
2022/09/20 15:26:12;;;;;;;1.73;1.50;;;;;;;;;;5035601;28;20448;-67